Beaver, Kentucky
Current Conditions -  °F | °C
As of 2:35 PM on Tuesday 21 Oct 2014 (Local Time) from KPBX Reporting Station
Overcast Overcast  
Wind Chill: 55°   Ceiling: 5000
Heat Index: 55°   Visibility: 10mi
Dew Point: 42°   Wind: 9mph
Humidity: 61%   Direction: 290°WNW
Pressure: 29.99"   Gusts: NA
Location:  37.4°N, 82.65°W
Report Text: KPBX 211835Z AUTO 29008KT 10SM SCT036 OVC050 13/05 A2999 RMK AO2 T01280054
Loading
Personal Weather Stations






























Interactive Weather Map
Tropical Storm Tracking
New forecast layout! Learn more

10-Day Weather Forecast

Advertisements
Track Severe Weather on mobile